sensor_id;sensor_type;location;lat;lon;timestamp;P1;durP1;ratioP1;P2;durP2;ratioP2
65234;SDS011;51820;48.374;10.930;2023-02-01T00:02:09;12.40;;;3.92;;
65234;SDS011;51820;48.374;10.930;2023-02-01T00:04:37;9.68;;;3.72;;
65234;SDS011;51820;48.374;10.930;2023-02-01T00:07:06;8.87;;;3.80;;
65234;SDS011;51820;48.374;10.930;2023-02-01T00:09:40;8.93;;;3.90;;
65234;SDS011;51820;48.374;10.930;2023-02-01T00:12:09;9.02;;;3.90;;
65234;SDS011;51820;48.374;10.930;2023-02-01T00:14:38;11.13;;;3.65;;
65234;SDS011;51820;48.374;10.930;2023-02-01T00:17:08;11.60;;;3.75;;
65234;SDS011;51820;48.374;10.930;2023-02-01T00:19:36;9.47;;;3.40;;
65234;SDS011;51820;48.374;10.930;2023-02-01T00:22:05;9.05;;;3.83;;
65234;SDS011;51820;48.374;10.930;2023-02-01T00:24:33;12.43;;;3.90;;
65234;SDS011;51820;48.374;10.930;2023-02-01T00:27:02;8.82;;;3.60;;
65234;SDS011;51820;48.374;10.930;2023-02-01T00:29:30;9.32;;;4.13;;
65234;SDS011;51820;48.374;10.930;2023-02-01T00:31:59;9.50;;;3.80;;
65234;SDS011;51820;48.374;10.930;2023-02-01T00:34:29;10.95;;;3.75;;
65234;SDS011;51820;48.374;10.930;2023-02-01T00:36:57;12.02;;;3.78;;
65234;SDS011;51820;48.374;10.930;2023-02-01T00:39:26;8.52;;;3.75;;
65234;SDS011;51820;48.374;10.930;2023-02-01T00:41:55;10.18;;;3.85;;
65234;SDS011;51820;48.374;10.930;2023-02-01T00:44:24;9.07;;;3.37;;
65234;SDS011;51820;48.374;10.930;2023-02-01T00:46:53;10.85;;;4.07;;
65234;SDS011;51820;48.374;10.930;2023-02-01T00:49:22;12.75;;;3.95;;
65234;SDS011;51820;48.374;10.930;2023-02-01T00:51:53;10.63;;;3.55;;
65234;SDS011;51820;48.374;10.930;2023-02-01T00:54:22;11.27;;;3.83;;
65234;SDS011;51820;48.374;10.930;2023-02-01T00:56:50;9.50;;;3.73;;
65234;SDS011;51820;48.374;10.930;2023-02-01T00:59:19;8.85;;;3.88;;
65234;SDS011;51820;48.374;10.930;2023-02-01T01:01:47;11.35;;;3.63;;
65234;SDS011;51820;48.374;10.930;2023-02-01T01:04:16;11.05;;;4.18;;
65234;SDS011;51820;48.374;10.930;2023-02-01T01:06:44;9.57;;;4.38;;
65234;SDS011;51820;48.374;10.930;2023-02-01T01:09:14;8.43;;;3.93;;
65234;SDS011;51820;48.374;10.930;2023-02-01T01:11:42;7.85;;;3.78;;
65234;SDS011;51820;48.374;10.930;2023-02-01T01:14:11;8.80;;;3.30;;
65234;SDS011;51820;48.374;10.930;2023-02-01T01:16:39;8.07;;;3.60;;
65234;SDS011;51820;48.374;10.930;2023-02-01T01:19:08;9.30;;;3.58;;
65234;SDS011;51820;48.374;10.930;2023-02-01T01:21:36;7.73;;;3.37;;
65234;SDS011;51820;48.374;10.930;2023-02-01T01:24:05;10.57;;;4.00;;
65234;SDS011;51820;48.374;10.930;2023-02-01T01:26:34;15.15;;;4.00;;
65234;SDS011;51820;48.374;10.930;2023-02-01T01:29:03;9.07;;;3.50;;
65234;SDS011;51820;48.374;10.930;2023-02-01T01:31:34;10.07;;;3.95;;
65234;SDS011;51820;48.374;10.930;2023-02-01T01:34:03;9.20;;;4.00;;
65234;SDS011;51820;48.374;10.930;2023-02-01T01:36:31;10.30;;;4.35;;
65234;SDS011;51820;48.374;10.930;2023-02-01T01:39:00;9.52;;;4.30;;
65234;SDS011;51820;48.374;10.930;2023-02-01T01:41:29;10.13;;;3.65;;
65234;SDS011;51820;48.374;10.930;2023-02-01T01:47:21;11.00;;;3.80;;
65234;SDS011;51820;48.374;10.930;2023-02-01T01:49:49;9.68;;;3.70;;
65234;SDS011;51820;48.374;10.930;2023-02-01T01:52:18;10.43;;;4.05;;
65234;SDS011;51820;48.374;10.930;2023-02-01T01:54:48;10.60;;;4.35;;
65234;SDS011;51820;48.374;10.930;2023-02-01T01:57:19;12.77;;;4.20;;
65234;SDS011;51820;48.374;10.930;2023-02-01T01:59:53;11.10;;;4.10;;
65234;SDS011;51820;48.374;10.930;2023-02-01T02:02:28;11.27;;;4.25;;
65234;SDS011;51820;48.374;10.930;2023-02-01T02:04:56;7.63;;;3.50;;
65234;SDS011;51820;48.374;10.930;2023-02-01T02:07:27;9.57;;;4.30;;
65234;SDS011;51820;48.374;10.930;2023-02-01T02:10:00;10.25;;;3.67;;
65234;SDS011;51820;48.374;10.930;2023-02-01T02:12:28;11.87;;;3.63;;
65234;SDS011;51820;48.374;10.930;2023-02-01T02:14:57;11.30;;;4.28;;
65234;SDS011;51820;48.374;10.930;2023-02-01T02:17:30;11.98;;;3.90;;
65234;SDS011;51820;48.374;10.930;2023-02-01T02:20:16;10.10;;;4.10;;
65234;SDS011;51820;48.374;10.930;2023-02-01T02:23:17;12.45;;;4.18;;
65234;SDS011;51820;48.374;10.930;2023-02-01T02:26:14;10.23;;;3.83;;
65234;SDS011;51820;48.374;10.930;2023-02-01T02:29:19;8.75;;;3.92;;
65234;SDS011;51820;48.374;10.930;2023-02-01T02:32:20;9.60;;;4.18;;
65234;SDS011;51820;48.374;10.930;2023-02-01T02:35:09;11.52;;;4.40;;
65234;SDS011;51820;48.374;10.930;2023-02-01T02:37:45;8.90;;;3.67;;
65234;SDS011;51820;48.374;10.930;2023-02-01T02:40:22;9.90;;;4.27;;
65234;SDS011;51820;48.374;10.930;2023-02-01T02:42:59;9.07;;;3.95;;
65234;SDS011;51820;48.374;10.930;2023-02-01T02:45:56;9.68;;;3.97;;
65234;SDS011;51820;48.374;10.930;2023-02-01T02:49:02;11.40;;;4.00;;
65234;SDS011;51820;48.374;10.930;2023-02-01T02:51:38;8.70;;;3.90;;
65234;SDS011;51820;48.374;10.930;2023-02-01T02:54:30;11.17;;;4.00;;
65234;SDS011;51820;48.374;10.930;2023-02-01T02:57:16;9.77;;;3.90;;
65234;SDS011;51820;48.374;10.930;2023-02-01T03:00:05;10.18;;;4.00;;
65234;SDS011;51820;48.374;10.930;2023-02-01T03:02:53;8.55;;;3.80;;
65234;SDS011;51820;48.374;10.930;2023-02-01T03:05:41;9.30;;;4.22;;
65234;SDS011;51820;48.374;10.930;2023-02-01T03:08:14;9.70;;;3.70;;
65234;SDS011;51820;48.374;10.930;2023-02-01T03:10:46;9.82;;;3.90;;
65234;SDS011;51820;48.374;10.930;2023-02-01T03:13:20;10.82;;;4.00;;
65234;SDS011;51820;48.374;10.930;2023-02-01T03:15:57;9.73;;;3.90;;
65234;SDS011;51820;48.374;10.930;2023-02-01T03:18:32;9.68;;;3.63;;
65234;SDS011;51820;48.374;10.930;2023-02-01T03:21:06;10.33;;;3.63;;
65234;SDS011;51820;48.374;10.930;2023-02-01T03:23:38;11.27;;;4.10;;
65234;SDS011;51820;48.374;10.930;2023-02-01T03:26:08;9.05;;;3.70;;
65234;SDS011;51820;48.374;10.930;2023-02-01T03:28:39;8.52;;;3.67;;
65234;SDS011;51820;48.374;10.930;2023-02-01T03:31:12;10.00;;;3.60;;
65234;SDS011;51820;48.374;10.930;2023-02-01T03:33:41;9.03;;;4.00;;
65234;SDS011;51820;48.374;10.930;2023-02-01T03:36:15;9.43;;;3.75;;
65234;SDS011;51820;48.374;10.930;2023-02-01T03:38:51;8.88;;;3.58;;
65234;SDS011;51820;48.374;10.930;2023-02-01T03:41:28;8.05;;;3.05;;
65234;SDS011;51820;48.374;10.930;2023-02-01T03:44:04;8.93;;;4.00;;
65234;SDS011;51820;48.374;10.930;2023-02-01T03:46:40;9.00;;;3.73;;
65234;SDS011;51820;48.374;10.930;2023-02-01T03:49:15;9.60;;;3.50;;
65234;SDS011;51820;48.374;10.930;2023-02-01T03:51:48;10.90;;;3.30;;
65234;SDS011;51820;48.374;10.930;2023-02-01T03:54:19;7.65;;;3.42;;
65234;SDS011;51820;48.374;10.930;2023-02-01T03:56:47;10.18;;;3.83;;
65234;SDS011;51820;48.374;10.930;2023-02-01T03:59:17;7.10;;;2.83;;
65234;SDS011;51820;48.374;10.930;2023-02-01T04:01:46;7.30;;;3.00;;
65234;SDS011;51820;48.374;10.930;2023-02-01T04:04:15;7.53;;;3.10;;
65234;SDS011;51820;48.374;10.930;2023-02-01T04:06:49;7.95;;;3.22;;
65234;SDS011;51820;48.374;10.930;2023-02-01T04:09:20;8.80;;;3.03;;
65234;SDS011;51820;48.374;10.930;2023-02-01T04:11:48;10.17;;;3.57;;
65234;SDS011;51820;48.374;10.930;2023-02-01T04:14:17;9.50;;;3.72;;
65234;SDS011;51820;48.374;10.930;2023-02-01T04:16:45;7.75;;;2.90;;
65234;SDS011;51820;48.374;10.930;2023-02-01T04:19:14;7.63;;;3.03;;
65234;SDS011;51820;48.374;10.930;2023-02-01T04:21:42;8.20;;;2.72;;
65234;SDS011;51820;48.374;10.930;2023-02-01T04:24:11;6.90;;;2.87;;
65234;SDS011;51820;48.374;10.930;2023-02-01T04:26:41;6.57;;;2.80;;
65234;SDS011;51820;48.374;10.930;2023-02-01T04:29:09;7.82;;;3.00;;
65234;SDS011;51820;48.374;10.930;2023-02-01T04:31:38;8.63;;;3.30;;
65234;SDS011;51820;48.374;10.930;2023-02-01T04:34:07;7.28;;;2.65;;
65234;SDS011;51820;48.374;10.930;2023-02-01T04:36:35;8.63;;;3.33;;
65234;SDS011;51820;48.374;10.930;2023-02-01T04:39:04;7.45;;;3.15;;
65234;SDS011;51820;48.374;10.930;2023-02-01T04:41:32;7.43;;;3.10;;
65234;SDS011;51820;48.374;10.930;2023-02-01T04:44:02;6.55;;;2.88;;
65234;SDS011;51820;48.374;10.930;2023-02-01T04:46:30;7.75;;;2.90;;
65234;SDS011;51820;48.374;10.930;2023-02-01T04:48:59;7.80;;;2.80;;
65234;SDS011;51820;48.374;10.930;2023-02-01T04:51:27;9.48;;;3.33;;
65234;SDS011;51820;48.374;10.930;2023-02-01T04:53:56;10.25;;;3.10;;
65234;SDS011;51820;48.374;10.930;2023-02-01T04:56:25;7.20;;;3.30;;
65234;SDS011;51820;48.374;10.930;2023-02-01T04:58:53;8.48;;;3.40;;
65234;SDS011;51820;48.374;10.930;2023-02-01T05:01:23;7.20;;;2.70;;
65234;SDS011;51820;48.374;10.930;2023-02-01T05:03:52;7.35;;;2.70;;
65234;SDS011;51820;48.374;10.930;2023-02-01T05:06:20;6.85;;;2.80;;
65234;SDS011;51820;48.374;10.930;2023-02-01T05:08:49;7.15;;;2.80;;
65234;SDS011;51820;48.374;10.930;2023-02-01T05:11:17;8.05;;;3.08;;
65234;SDS011;51820;48.374;10.930;2023-02-01T05:14:05;8.17;;;3.20;;
65234;SDS011;51820;48.374;10.930;2023-02-01T05:16:35;7.07;;;2.88;;
65234;SDS011;51820;48.374;10.930;2023-02-01T05:19:04;8.73;;;3.20;;
65234;SDS011;51820;48.374;10.930;2023-02-01T05:21:32;7.82;;;2.90;;
65234;SDS011;51820;48.374;10.930;2023-02-01T05:24:00;8.57;;;3.25;;
65234;SDS011;51820;48.374;10.930;2023-02-01T05:26:39;8.03;;;3.03;;
65234;SDS011;51820;48.374;10.930;2023-02-01T05:29:08;9.40;;;3.13;;
65234;SDS011;51820;48.374;10.930;2023-02-01T05:31:38;7.47;;;2.88;;
65234;SDS011;51820;48.374;10.930;2023-02-01T05:34:06;7.93;;;2.92;;
65234;SDS011;51820;48.374;10.930;2023-02-01T05:36:35;8.40;;;3.15;;
65234;SDS011;51820;48.374;10.930;2023-02-01T05:39:04;7.63;;;3.00;;
65234;SDS011;51820;48.374;10.930;2023-02-01T05:41:32;9.57;;;2.70;;
65234;SDS011;51820;48.374;10.930;2023-02-01T05:44:00;8.52;;;3.17;;
65234;SDS011;51820;48.374;10.930;2023-02-01T05:46:29;7.55;;;2.70;;
65234;SDS011;51820;48.374;10.930;2023-02-01T05:48:59;8.05;;;2.85;;
65234;SDS011;51820;48.374;10.930;2023-02-01T05:51:27;6.73;;;2.83;;
65234;SDS011;51820;48.374;10.930;2023-02-01T05:53:55;7.30;;;2.63;;
65234;SDS011;51820;48.374;10.930;2023-02-01T05:56:24;9.00;;;3.10;;
65234;SDS011;51820;48.374;10.930;2023-02-01T05:58:52;8.63;;;3.38;;
65234;SDS011;51820;48.374;10.930;2023-02-01T06:01:22;6.20;;;2.70;;
65234;SDS011;51820;48.374;10.930;2023-02-01T06:03:50;8.83;;;3.17;;
65234;SDS011;51820;48.374;10.930;2023-02-01T06:06:20;7.97;;;2.83;;
65234;SDS011;51820;48.374;10.930;2023-02-01T06:08:49;7.10;;;2.70;;
65234;SDS011;51820;48.374;10.930;2023-02-01T06:11:18;7.32;;;2.65;;
65234;SDS011;51820;48.374;10.930;2023-02-01T06:13:57;6.13;;;2.40;;
65234;SDS011;51820;48.374;10.930;2023-02-01T06:16:26;7.60;;;3.07;;
65234;SDS011;51820;48.374;10.930;2023-02-01T06:18:54;6.45;;;2.75;;
65234;SDS011;51820;48.374;10.930;2023-02-01T06:21:24;7.57;;;2.33;;
65234;SDS011;51820;48.374;10.930;2023-02-01T06:23:53;7.28;;;2.60;;
65234;SDS011;51820;48.374;10.930;2023-02-01T06:26:23;7.32;;;2.88;;
65234;SDS011;51820;48.374;10.930;2023-02-01T06:28:52;6.93;;;2.23;;
65234;SDS011;51820;48.374;10.930;2023-02-01T06:31:21;6.20;;;2.25;;
65234;SDS011;51820;48.374;10.930;2023-02-01T06:33:51;6.82;;;2.63;;
65234;SDS011;51820;48.374;10.930;2023-02-01T06:36:20;13.02;;;5.45;;
65234;SDS011;51820;48.374;10.930;2023-02-01T06:38:51;9.05;;;3.55;;
65234;SDS011;51820;48.374;10.930;2023-02-01T06:41:19;6.37;;;2.33;;
65234;SDS011;51820;48.374;10.930;2023-02-01T06:43:48;8.27;;;2.60;;
65234;SDS011;51820;48.374;10.930;2023-02-01T06:46:16;7.53;;;2.80;;
65234;SDS011;51820;48.374;10.930;2023-02-01T06:48:45;6.95;;;2.40;;
65234;SDS011;51820;48.374;10.930;2023-02-01T06:51:21;7.57;;;2.88;;
65234;SDS011;51820;48.374;10.930;2023-02-01T06:53:52;6.03;;;2.23;;
65234;SDS011;51820;48.374;10.930;2023-02-01T06:56:20;6.10;;;2.75;;
65234;SDS011;51820;48.374;10.930;2023-02-01T06:58:49;7.90;;;3.10;;
65234;SDS011;51820;48.374;10.930;2023-02-01T07:01:17;7.22;;;2.70;;
65234;SDS011;51820;48.374;10.930;2023-02-01T07:03:47;7.95;;;2.90;;
65234;SDS011;51820;48.374;10.930;2023-02-01T07:06:16;6.87;;;3.03;;
65234;SDS011;51820;48.374;10.930;2023-02-01T07:08:45;8.05;;;3.30;;
65234;SDS011;51820;48.374;10.930;2023-02-01T07:11:16;9.57;;;2.70;;
65234;SDS011;51820;48.374;10.930;2023-02-01T07:13:45;6.57;;;2.58;;
65234;SDS011;51820;48.374;10.930;2023-02-01T07:16:14;8.60;;;3.67;;
65234;SDS011;51820;48.374;10.930;2023-02-01T07:18:43;6.33;;;2.60;;
65234;SDS011;51820;48.374;10.930;2023-02-01T07:21:12;6.82;;;2.80;;
65234;SDS011;51820;48.374;10.930;2023-02-01T07:23:41;6.95;;;2.85;;
65234;SDS011;51820;48.374;10.930;2023-02-01T07:26:09;7.55;;;2.80;;
65234;SDS011;51820;48.374;10.930;2023-02-01T07:28:41;8.90;;;3.17;;
65234;SDS011;51820;48.374;10.930;2023-02-01T07:31:10;8.07;;;3.03;;
65234;SDS011;51820;48.374;10.930;2023-02-01T07:33:39;7.93;;;2.72;;
65234;SDS011;51820;48.374;10.930;2023-02-01T07:36:10;8.23;;;2.75;;
65234;SDS011;51820;48.374;10.930;2023-02-01T07:38:39;7.40;;;2.88;;
65234;SDS011;51820;48.374;10.930;2023-02-01T07:41:08;7.50;;;2.70;;
65234;SDS011;51820;48.374;10.930;2023-02-01T07:43:37;6.17;;;2.80;;
65234;SDS011;51820;48.374;10.930;2023-02-01T07:46:07;7.82;;;2.60;;
65234;SDS011;51820;48.374;10.930;2023-02-01T07:48:36;6.45;;;2.67;;
65234;SDS011;51820;48.374;10.930;2023-02-01T07:51:06;7.40;;;2.45;;
65234;SDS011;51820;48.374;10.930;2023-02-01T07:53:37;6.45;;;2.60;;
65234;SDS011;51820;48.374;10.930;2023-02-01T07:56:09;6.77;;;2.60;;
65234;SDS011;51820;48.374;10.930;2023-02-01T07:58:39;7.47;;;2.28;;
65234;SDS011;51820;48.374;10.930;2023-02-01T08:01:14;6.10;;;2.20;;
65234;SDS011;51820;48.374;10.930;2023-02-01T08:03:50;5.80;;;1.98;;
65234;SDS011;51820;48.374;10.930;2023-02-01T08:06:20;6.15;;;2.45;;
65234;SDS011;51820;48.374;10.930;2023-02-01T08:08:49;5.57;;;1.97;;
65234;SDS011;51820;48.374;10.930;2023-02-01T08:11:19;7.22;;;2.25;;
65234;SDS011;51820;48.374;10.930;2023-02-01T08:13:48;7.47;;;2.38;;
65234;SDS011;51820;48.374;10.930;2023-02-01T08:16:18;6.75;;;2.63;;
65234;SDS011;51820;48.374;10.930;2023-02-01T08:18:48;7.05;;;2.17;;
65234;SDS011;51820;48.374;10.930;2023-02-01T08:21:18;7.73;;;2.33;;
65234;SDS011;51820;48.374;10.930;2023-02-01T08:23:48;7.80;;;2.78;;
65234;SDS011;51820;48.374;10.930;2023-02-01T08:26:18;6.15;;;2.50;;
65234;SDS011;51820;48.374;10.930;2023-02-01T08:28:49;6.38;;;2.55;;
65234;SDS011;51820;48.374;10.930;2023-02-01T08:31:20;6.10;;;2.45;;
65234;SDS011;51820;48.374;10.930;2023-02-01T08:33:51;7.77;;;2.40;;
65234;SDS011;51820;48.374;10.930;2023-02-01T08:36:21;8.10;;;2.60;;
65234;SDS011;51820;48.374;10.930;2023-02-01T08:38:51;6.18;;;2.10;;
65234;SDS011;51820;48.374;10.930;2023-02-01T08:41:20;7.25;;;2.50;;
65234;SDS011;51820;48.374;10.930;2023-02-01T08:43:51;6.50;;;2.88;;
65234;SDS011;51820;48.374;10.930;2023-02-01T08:46:22;6.73;;;2.73;;
65234;SDS011;51820;48.374;10.930;2023-02-01T08:48:51;7.20;;;2.38;;
65234;SDS011;51820;48.374;10.930;2023-02-01T08:51:21;8.07;;;2.63;;
65234;SDS011;51820;48.374;10.930;2023-02-01T08:53:50;7.90;;;2.60;;
65234;SDS011;51820;48.374;10.930;2023-02-01T08:56:20;7.53;;;2.60;;
65234;SDS011;51820;48.374;10.930;2023-02-01T08:58:49;13.30;;;2.97;;
65234;SDS011;51820;48.374;10.930;2023-02-01T09:01:18;8.23;;;2.70;;
65234;SDS011;51820;48.374;10.930;2023-02-01T09:03:48;12.82;;;3.00;;
65234;SDS011;51820;48.374;10.930;2023-02-01T09:06:16;6.45;;;2.25;;
65234;SDS011;51820;48.374;10.930;2023-02-01T09:08:45;6.95;;;2.47;;
65234;SDS011;51820;48.374;10.930;2023-02-01T09:11:14;6.80;;;2.23;;
65234;SDS011;51820;48.374;10.930;2023-02-01T09:13:46;7.40;;;2.83;;
65234;SDS011;51820;48.374;10.930;2023-02-01T09:16:18;6.70;;;2.45;;
65234;SDS011;51820;48.374;10.930;2023-02-01T09:18:47;6.40;;;2.22;;
65234;SDS011;51820;48.374;10.930;2023-02-01T09:21:27;7.63;;;2.97;;
65234;SDS011;51820;48.374;10.930;2023-02-01T09:23:55;6.33;;;2.17;;
65234;SDS011;51820;48.374;10.930;2023-02-01T09:26:24;6.70;;;2.80;;
65234;SDS011;51820;48.374;10.930;2023-02-01T09:28:58;6.30;;;2.45;;
65234;SDS011;51820;48.374;10.930;2023-02-01T09:31:27;5.80;;;2.60;;
65234;SDS011;51820;48.374;10.930;2023-02-01T09:33:57;6.20;;;2.67;;
65234;SDS011;51820;48.374;10.930;2023-02-01T09:36:25;7.47;;;2.87;;
65234;SDS011;51820;48.374;10.930;2023-02-01T09:38:56;6.18;;;2.60;;
65234;SDS011;51820;48.374;10.930;2023-02-01T09:41:34;6.85;;;2.55;;
65234;SDS011;51820;48.374;10.930;2023-02-01T09:44:12;8.77;;;2.72;;
65234;SDS011;51820;48.374;10.930;2023-02-01T09:46:48;6.53;;;2.53;;
65234;SDS011;51820;48.374;10.930;2023-02-01T09:49:20;7.43;;;2.50;;
65234;SDS011;51820;48.374;10.930;2023-02-01T09:51:53;5.88;;;2.53;;
65234;SDS011;51820;48.374;10.930;2023-02-01T09:54:24;6.82;;;2.58;;
65234;SDS011;51820;48.374;10.930;2023-02-01T09:56:58;7.90;;;2.25;;
65234;SDS011;51820;48.374;10.930;2023-02-01T09:59:34;7.10;;;2.65;;
65234;SDS011;51820;48.374;10.930;2023-02-01T10:02:11;8.43;;;2.50;;
65234;SDS011;51820;48.374;10.930;2023-02-01T10:04:43;7.75;;;2.22;;
65234;SDS011;51820;48.374;10.930;2023-02-01T10:07:15;7.82;;;2.67;;
65234;SDS011;51820;48.374;10.930;2023-02-01T10:10:01;7.70;;;2.40;;
65234;SDS011;51820;48.374;10.930;2023-02-01T10:12:41;8.40;;;2.60;;
65234;SDS011;51820;48.374;10.930;2023-02-01T10:15:30;6.37;;;2.10;;
65234;SDS011;51820;48.374;10.930;2023-02-01T10:18:25;5.40;;;1.95;;
65234;SDS011;51820;48.374;10.930;2023-02-01T10:21:17;6.50;;;2.35;;
65234;SDS011;51820;48.374;10.930;2023-02-01T10:24:07;6.07;;;2.20;;
65234;SDS011;51820;48.374;10.930;2023-02-01T10:26:46;7.13;;;2.35;;
65234;SDS011;51820;48.374;10.930;2023-02-01T10:29:19;11.17;;;2.73;;
65234;SDS011;51820;48.374;10.930;2023-02-01T10:31:50;9.38;;;2.28;;
65234;SDS011;51820;48.374;10.930;2023-02-01T10:34:19;5.90;;;2.35;;
65234;SDS011;51820;48.374;10.930;2023-02-01T10:36:56;6.68;;;2.70;;
65234;SDS011;51820;48.374;10.930;2023-02-01T10:39:29;8.20;;;2.58;;
65234;SDS011;51820;48.374;10.930;2023-02-01T10:41:58;6.20;;;2.40;;
65234;SDS011;51820;48.374;10.930;2023-02-01T10:44:27;9.57;;;2.45;;
65234;SDS011;51820;48.374;10.930;2023-02-01T10:46:57;7.28;;;2.70;;
65234;SDS011;51820;48.374;10.930;2023-02-01T10:49:26;7.07;;;2.30;;
65234;SDS011;51820;48.374;10.930;2023-02-01T10:52:02;6.00;;;2.22;;
65234;SDS011;51820;48.374;10.930;2023-02-01T10:54:39;6.13;;;2.33;;
65234;SDS011;51820;48.374;10.930;2023-02-01T10:57:08;8.00;;;2.50;;
65234;SDS011;51820;48.374;10.930;2023-02-01T10:59:38;9.20;;;3.10;;
65234;SDS011;51820;48.374;10.930;2023-02-01T11:05:22;6.50;;;2.47;;
65234;SDS011;51820;48.374;10.930;2023-02-01T11:07:53;8.27;;;2.53;;
65234;SDS011;51820;48.374;10.930;2023-02-01T11:10:35;6.05;;;2.60;;
65234;SDS011;51820;48.374;10.930;2023-02-01T11:13:08;6.63;;;2.60;;
65234;SDS011;51820;48.374;10.930;2023-02-01T11:15:45;6.75;;;2.58;;
65234;SDS011;51820;48.374;10.930;2023-02-01T11:18:17;7.43;;;2.13;;
65234;SDS011;51820;48.374;10.930;2023-02-01T11:20:48;5.97;;;2.33;;
65234;SDS011;51820;48.374;10.930;2023-02-01T11:23:20;9.82;;;2.83;;
65234;SDS011;51820;48.374;10.930;2023-02-01T11:25:52;7.45;;;2.55;;
65234;SDS011;51820;48.374;10.930;2023-02-01T11:28:23;9.95;;;2.40;;
65234;SDS011;51820;48.374;10.930;2023-02-01T11:30:53;7.93;;;2.88;;
65234;SDS011;51820;48.374;10.930;2023-02-01T11:33:24;8.70;;;2.60;;
65234;SDS011;51820;48.374;10.930;2023-02-01T11:35:57;7.13;;;3.13;;
65234;SDS011;51820;48.374;10.930;2023-02-01T11:38:28;7.47;;;2.42;;
65234;SDS011;51820;48.374;10.930;2023-02-01T11:41:11;12.80;;;4.57;;
65234;SDS011;51820;48.374;10.930;2023-02-01T11:43:51;7.03;;;3.15;;
65234;SDS011;51820;48.374;10.930;2023-02-01T11:46:25;6.20;;;2.27;;
65234;SDS011;51820;48.374;10.930;2023-02-01T11:49:13;8.30;;;2.72;;
65234;SDS011;51820;48.374;10.930;2023-02-01T11:51:52;7.40;;;2.80;;
65234;SDS011;51820;48.374;10.930;2023-02-01T11:54:36;8.05;;;2.63;;
65234;SDS011;51820;48.374;10.930;2023-02-01T11:57:29;7.90;;;2.90;;
65234;SDS011;51820;48.374;10.930;2023-02-01T12:00:21;7.13;;;2.40;;
65234;SDS011;51820;48.374;10.930;2023-02-01T12:03:11;9.02;;;3.10;;
65234;SDS011;51820;48.374;10.930;2023-02-01T12:06:04;10.85;;;2.80;;
65234;SDS011;51820;48.374;10.930;2023-02-01T12:08:47;9.23;;;3.03;;
65234;SDS011;51820;48.374;10.930;2023-02-01T12:11:33;6.82;;;2.75;;
65234;SDS011;51820;48.374;10.930;2023-02-01T12:14:21;8.30;;;2.80;;
65234;SDS011;51820;48.374;10.930;2023-02-01T12:17:01;9.50;;;2.50;;
65234;SDS011;51820;48.374;10.930;2023-02-01T12:19:50;7.75;;;2.72;;
65234;SDS011;51820;48.374;10.930;2023-02-01T12:22:34;7.50;;;2.33;;
65234;SDS011;51820;48.374;10.930;2023-02-01T12:25:20;11.38;;;3.35;;
65234;SDS011;51820;48.374;10.930;2023-02-01T12:28:16;10.37;;;2.57;;
65234;SDS011;51820;48.374;10.930;2023-02-01T12:34:02;8.98;;;2.78;;
65234;SDS011;51820;48.374;10.930;2023-02-01T12:36:52;11.25;;;2.72;;
65234;SDS011;51820;48.374;10.930;2023-02-01T12:39:31;7.43;;;3.35;;
65234;SDS011;51820;48.374;10.930;2023-02-01T12:42:01;10.80;;;3.13;;
65234;SDS011;51820;48.374;10.930;2023-02-01T12:44:42;7.95;;;2.50;;
65234;SDS011;51820;48.374;10.930;2023-02-01T12:47:17;9.30;;;2.83;;
65234;SDS011;51820;48.374;10.930;2023-02-01T12:49:53;11.88;;;3.00;;
65234;SDS011;51820;48.374;10.930;2023-02-01T12:52:27;9.48;;;2.80;;
65234;SDS011;51820;48.374;10.930;2023-02-01T12:55:05;6.50;;;2.50;;
65234;SDS011;51820;48.374;10.930;2023-02-01T12:57:43;8.57;;;2.80;;
65234;SDS011;51820;48.374;10.930;2023-02-01T13:00:20;8.10;;;3.33;;
65234;SDS011;51820;48.374;10.930;2023-02-01T13:02:55;8.57;;;3.10;;
65234;SDS011;51820;48.374;10.930;2023-02-01T13:05:28;11.45;;;3.42;;
65234;SDS011;51820;48.374;10.930;2023-02-01T13:08:10;8.57;;;3.23;;
65234;SDS011;51820;48.374;10.930;2023-02-01T13:10:42;8.45;;;3.13;;
65234;SDS011;51820;48.374;10.930;2023-02-01T13:13:16;10.15;;;3.75;;
65234;SDS011;51820;48.374;10.930;2023-02-01T13:15:54;8.27;;;2.72;;
65234;SDS011;51820;48.374;10.930;2023-02-01T13:18:32;9.88;;;3.38;;
65234;SDS011;51820;48.374;10.930;2023-02-01T13:21:06;7.60;;;2.63;;
65234;SDS011;51820;48.374;10.930;2023-02-01T13:23:40;9.15;;;2.83;;
65234;SDS011;51820;48.374;10.930;2023-02-01T13:26:11;8.75;;;3.40;;
65234;SDS011;51820;48.374;10.930;2023-02-01T13:28:40;9.48;;;2.88;;
65234;SDS011;51820;48.374;10.930;2023-02-01T13:37:47;7.55;;;2.92;;
65234;SDS011;51820;48.374;10.930;2023-02-01T13:40:39;7.25;;;2.90;;
65234;SDS011;51820;48.374;10.930;2023-02-01T13:43:11;7.40;;;2.55;;
65234;SDS011;51820;48.374;10.930;2023-02-01T13:45:43;8.43;;;3.35;;
65234;SDS011;51820;48.374;10.930;2023-02-01T13:48:19;9.20;;;2.60;;
65234;SDS011;51820;48.374;10.930;2023-02-01T13:50:51;7.25;;;3.05;;
65234;SDS011;51820;48.374;10.930;2023-02-01T13:53:23;7.07;;;2.55;;
65234;SDS011;51820;48.374;10.930;2023-02-01T13:55:56;6.47;;;2.28;;
65234;SDS011;51820;48.374;10.930;2023-02-01T13:58:31;6.47;;;2.30;;
65234;SDS011;51820;48.374;10.930;2023-02-01T14:04:04;7.30;;;2.30;;
65234;SDS011;51820;48.374;10.930;2023-02-01T14:06:44;7.28;;;2.15;;
65234;SDS011;51820;48.374;10.930;2023-02-01T14:09:17;5.47;;;1.83;;
65234;SDS011;51820;48.374;10.930;2023-02-01T14:11:57;6.80;;;2.17;;
65234;SDS011;51820;48.374;10.930;2023-02-01T14:23:37;8.25;;;2.92;;
65234;SDS011;51820;48.374;10.930;2023-02-01T14:26:15;7.35;;;2.63;;
65234;SDS011;51820;48.374;10.930;2023-02-01T14:28:49;7.23;;;2.53;;
65234;SDS011;51820;48.374;10.930;2023-02-01T14:31:34;7.90;;;2.97;;
65234;SDS011;51820;48.374;10.930;2023-02-01T14:34:17;8.70;;;2.95;;
65234;SDS011;51820;48.374;10.930;2023-02-01T14:36:50;9.55;;;2.80;;
65234;SDS011;51820;48.374;10.930;2023-02-01T14:39:26;6.80;;;2.10;;
65234;SDS011;51820;48.374;10.930;2023-02-01T14:42:16;8.77;;;2.30;;
65234;SDS011;51820;48.374;10.930;2023-02-01T14:44:50;9.20;;;2.60;;
65234;SDS011;51820;48.374;10.930;2023-02-01T14:47:28;8.95;;;2.33;;
65234;SDS011;51820;48.374;10.930;2023-02-01T14:50:03;7.43;;;2.50;;
65234;SDS011;51820;48.374;10.930;2023-02-01T14:52:42;10.52;;;2.65;;
65234;SDS011;51820;48.374;10.930;2023-02-01T14:55:15;6.07;;;2.10;;
65234;SDS011;51820;48.374;10.930;2023-02-01T14:57:48;11.13;;;2.30;;
65234;SDS011;51820;48.374;10.930;2023-02-01T15:00:20;11.80;;;2.67;;
65234;SDS011;51820;48.374;10.930;2023-02-01T15:02:52;9.48;;;1.95;;
65234;SDS011;51820;48.374;10.930;2023-02-01T15:05:50;6.57;;;1.88;;
65234;SDS011;51820;48.374;10.930;2023-02-01T15:08:24;10.53;;;2.40;;
65234;SDS011;51820;48.374;10.930;2023-02-01T15:11:00;7.40;;;1.63;;
65234;SDS011;51820;48.374;10.930;2023-02-01T15:13:34;9.80;;;1.50;;
65234;SDS011;51820;48.374;10.930;2023-02-01T15:16:08;7.15;;;1.30;;
65234;SDS011;51820;48.374;10.930;2023-02-01T15:18:38;7.47;;;1.50;;
65234;SDS011;51820;48.374;10.930;2023-02-01T15:21:14;7.77;;;1.67;;
65234;SDS011;51820;48.374;10.930;2023-02-01T15:24:10;6.97;;;1.83;;
65234;SDS011;51820;48.374;10.930;2023-02-01T15:26:41;5.95;;;1.30;;
65234;SDS011;51820;48.374;10.930;2023-02-01T15:29:10;8.02;;;1.45;;
65234;SDS011;51820;48.374;10.930;2023-02-01T15:31:41;10.35;;;1.65;;
65234;SDS011;51820;48.374;10.930;2023-02-01T15:34:12;11.60;;;2.23;;
65234;SDS011;51820;48.374;10.930;2023-02-01T15:36:50;10.98;;;1.90;;
65234;SDS011;51820;48.374;10.930;2023-02-01T15:39:28;7.65;;;1.75;;